sensor_id;sensor_type;location;lat;lon;timestamp;P1;durP1;ratioP1;P2;durP2;ratioP2
6693;SDS011;3384;42.628;23.380;2023-03-01T01:31:44;1.43;;;1.40;;
6693;SDS011;3384;42.628;23.380;2023-03-01T01:34:13;1.67;;;1.67;;
6693;SDS011;3384;42.628;23.380;2023-03-01T01:36:39;1.57;;;1.57;;
6693;SDS011;3384;42.628;23.380;2023-03-01T01:39:06;1.30;;;1.30;;
6693;SDS011;3384;42.628;23.380;2023-03-01T01:41:38;1.00;;;1.00;;
6693;SDS011;3384;42.628;23.380;2023-03-01T01:44:12;1.40;;;1.40;;
6693;SDS011;3384;42.628;23.380;2023-03-01T01:46:40;2.27;;;2.17;;
6693;SDS011;3384;42.628;23.380;2023-03-01T01:49:11;1.50;;;1.50;;
6693;SDS011;3384;42.628;23.380;2023-03-01T01:51:42;1.57;;;1.47;;
6693;SDS011;3384;42.628;23.380;2023-03-01T01:54:13;1.37;;;1.37;;
6693;SDS011;3384;42.628;23.380;2023-03-01T01:56:40;1.30;;;1.30;;
6693;SDS011;3384;42.628;23.380;2023-03-01T01:59:08;1.10;;;1.10;;
6693;SDS011;3384;42.628;23.380;2023-03-01T02:01:35;1.97;;;1.50;;
6693;SDS011;3384;42.628;23.380;2023-03-01T02:04:02;1.27;;;1.27;;
6693;SDS011;3384;42.628;23.380;2023-03-01T02:06:31;0.87;;;0.87;;
6693;SDS011;3384;42.628;23.380;2023-03-01T02:08:59;0.83;;;0.83;;
6693;SDS011;3384;42.628;23.380;2023-03-01T02:11:26;1.10;;;1.10;;
6693;SDS011;3384;42.628;23.380;2023-03-01T02:13:53;0.93;;;0.93;;
6693;SDS011;3384;42.628;23.380;2023-03-01T02:22:20;1.10;;;1.10;;
6693;SDS011;3384;42.628;23.380;2023-03-01T02:28:08;1.30;;;1.30;;
6693;SDS011;3384;42.628;23.380;2023-03-01T02:40:12;1.80;;;1.60;;
6693;SDS011;3384;42.628;23.380;2023-03-01T03:07:08;3.60;;;3.50;;
6693;SDS011;3384;42.628;23.380;2023-03-01T03:15:45;4.67;;;4.33;;
6693;SDS011;3384;42.628;23.380;2023-03-01T04:43:58;2.30;;;2.20;;
6693;SDS011;3384;42.628;23.380;2023-03-01T04:46:25;3.20;;;3.10;;
6693;SDS011;3384;42.628;23.380;2023-03-01T04:48:51;2.33;;;2.20;;
6693;SDS011;3384;42.628;23.380;2023-03-01T04:51:18;2.13;;;2.03;;
6693;SDS011;3384;42.628;23.380;2023-03-01T04:53:44;2.43;;;2.33;;
6693;SDS011;3384;42.628;23.380;2023-03-01T04:56:11;2.77;;;2.67;;
6693;SDS011;3384;42.628;23.380;2023-03-01T04:58:39;2.83;;;2.60;;
6693;SDS011;3384;42.628;23.380;2023-03-01T05:01:11;3.10;;;3.00;;
6693;SDS011;3384;42.628;23.380;2023-03-01T05:03:40;2.50;;;2.40;;
6693;SDS011;3384;42.628;23.380;2023-03-01T05:06:07;3.27;;;3.17;;
6693;SDS011;3384;42.628;23.380;2023-03-01T05:08:33;2.27;;;2.20;;
6693;SDS011;3384;42.628;23.380;2023-03-01T05:11:03;3.10;;;3.00;;
6693;SDS011;3384;42.628;23.380;2023-03-01T05:13:29;3.10;;;3.00;;
6693;SDS011;3384;42.628;23.380;2023-03-01T05:15:57;2.83;;;2.73;;
6693;SDS011;3384;42.628;23.380;2023-03-01T05:18:26;2.33;;;2.27;;
6693;SDS011;3384;42.628;23.380;2023-03-01T05:20:53;1.90;;;1.90;;
6693;SDS011;3384;42.628;23.380;2023-03-01T05:23:21;1.10;;;1.10;;
6693;SDS011;3384;42.628;23.380;2023-03-01T05:25:48;2.20;;;2.20;;
6693;SDS011;3384;42.628;23.380;2023-03-01T05:34:26;0.90;;;0.90;;
6693;SDS011;3384;42.628;23.380;2023-03-01T05:36:53;1.17;;;1.17;;
6693;SDS011;3384;42.628;23.380;2023-03-01T05:39:20;0.97;;;0.97;;
6693;SDS011;3384;42.628;23.380;2023-03-01T05:41:47;0.83;;;0.83;;
6693;SDS011;3384;42.628;23.380;2023-03-01T05:44:14;1.50;;;1.50;;
6693;SDS011;3384;42.628;23.380;2023-03-01T05:46:41;1.43;;;1.43;;
6693;SDS011;3384;42.628;23.380;2023-03-01T05:49:07;1.50;;;1.50;;
6693;SDS011;3384;42.628;23.380;2023-03-01T05:51:35;2.27;;;2.17;;
6693;SDS011;3384;42.628;23.380;2023-03-01T05:54:01;2.30;;;2.20;;
6693;SDS011;3384;42.628;23.380;2023-03-01T05:56:31;1.83;;;1.67;;
6693;SDS011;3384;42.628;23.380;2023-03-01T05:58:58;1.50;;;1.50;;
6693;SDS011;3384;42.628;23.380;2023-03-01T06:01:24;1.30;;;1.30;;
6693;SDS011;3384;42.628;23.380;2023-03-01T06:03:51;1.40;;;1.40;;
6693;SDS011;3384;42.628;23.380;2023-03-01T06:08:50;1.23;;;1.13;;
6693;SDS011;3384;42.628;23.380;2023-03-01T06:11:17;0.90;;;0.90;;
6693;SDS011;3384;42.628;23.380;2023-03-01T06:13:43;0.87;;;0.50;;
6693;SDS011;3384;42.628;23.380;2023-03-01T06:16:10;0.90;;;0.90;;
6693;SDS011;3384;42.628;23.380;2023-03-01T06:18:37;0.60;;;0.60;;
6693;SDS011;3384;42.628;23.380;2023-03-01T06:21:04;0.80;;;0.80;;
6693;SDS011;3384;42.628;23.380;2023-03-01T06:23:31;0.80;;;0.80;;
6693;SDS011;3384;42.628;23.380;2023-03-01T06:25:59;0.70;;;0.70;;
6693;SDS011;3384;42.628;23.380;2023-03-01T06:28:25;0.60;;;0.60;;
6693;SDS011;3384;42.628;23.380;2023-03-01T06:30:52;0.80;;;0.60;;
6693;SDS011;3384;42.628;23.380;2023-03-01T06:33:19;0.70;;;0.70;;
6693;SDS011;3384;42.628;23.380;2023-03-01T06:35:46;0.67;;;0.67;;
6693;SDS011;3384;42.628;23.380;2023-03-01T06:38:13;20.40;;;0.73;;
6693;SDS011;3384;42.628;23.380;2023-03-01T06:40:42;0.60;;;0.53;;
6693;SDS011;3384;42.628;23.380;2023-03-01T06:43:10;0.90;;;0.70;;
6693;SDS011;3384;42.628;23.380;2023-03-01T06:45:36;4.77;;;0.93;;
6693;SDS011;3384;42.628;23.380;2023-03-01T06:48:03;1.30;;;1.30;;
6693;SDS011;3384;42.628;23.380;2023-03-01T06:50:30;1.10;;;1.10;;
6693;SDS011;3384;42.628;23.380;2023-03-01T06:52:57;0.53;;;0.53;;
6693;SDS011;3384;42.628;23.380;2023-03-01T06:55:23;0.77;;;0.77;;
6693;SDS011;3384;42.628;23.380;2023-03-01T06:57:53;0.90;;;0.90;;
6693;SDS011;3384;42.628;23.380;2023-03-01T07:00:22;1.43;;;1.33;;
6693;SDS011;3384;42.628;23.380;2023-03-01T07:02:49;2.17;;;1.27;;
6693;SDS011;3384;42.628;23.380;2023-03-01T07:05:15;3.13;;;1.20;;
6693;SDS011;3384;42.628;23.380;2023-03-01T07:07:42;1.40;;;1.40;;
6693;SDS011;3384;42.628;23.380;2023-03-01T07:10:09;1.70;;;1.40;;
6693;SDS011;3384;42.628;23.380;2023-03-01T07:12:35;1.63;;;1.53;;
6693;SDS011;3384;42.628;23.380;2023-03-01T07:15:02;3.13;;;1.17;;
6693;SDS011;3384;42.628;23.380;2023-03-01T07:17:30;1.13;;;1.13;;
6693;SDS011;3384;42.628;23.380;2023-03-01T07:19:57;0.70;;;0.70;;
6693;SDS011;3384;42.628;23.380;2023-03-01T07:22:23;0.80;;;0.80;;
6693;SDS011;3384;42.628;23.380;2023-03-01T07:24:50;1.20;;;1.20;;
6693;SDS011;3384;42.628;23.380;2023-03-01T07:27:16;1.67;;;1.33;;
6693;SDS011;3384;42.628;23.380;2023-03-01T07:29:43;2.10;;;2.00;;
6693;SDS011;3384;42.628;23.380;2023-03-01T07:32:09;1.40;;;1.40;;
6693;SDS011;3384;42.628;23.380;2023-03-01T07:34:38;2.13;;;2.03;;
6693;SDS011;3384;42.628;23.380;2023-03-01T07:37:04;1.40;;;1.30;;
6693;SDS011;3384;42.628;23.380;2023-03-01T07:39:31;1.37;;;1.27;;
6693;SDS011;3384;42.628;23.380;2023-03-01T07:41:57;1.80;;;1.80;;
6693;SDS011;3384;42.628;23.380;2023-03-01T07:44:24;5.33;;;1.40;;
6693;SDS011;3384;42.628;23.380;2023-03-01T07:46:51;1.20;;;1.20;;
6693;SDS011;3384;42.628;23.380;2023-03-01T07:49:21;2.33;;;1.73;;
6693;SDS011;3384;42.628;23.380;2023-03-01T07:51:49;1.47;;;1.47;;
6693;SDS011;3384;42.628;23.380;2023-03-01T07:54:15;2.50;;;1.13;;
6693;SDS011;3384;42.628;23.380;2023-03-01T07:56:43;0.90;;;0.90;;
6693;SDS011;3384;42.628;23.380;2023-03-01T07:59:09;2.10;;;0.90;;
6693;SDS011;3384;42.628;23.380;2023-03-01T08:01:36;3.30;;;1.33;;
6693;SDS011;3384;42.628;23.380;2023-03-01T08:04:02;1.43;;;1.33;;
6693;SDS011;3384;42.628;23.380;2023-03-01T08:06:33;1.50;;;1.50;;
6693;SDS011;3384;42.628;23.380;2023-03-01T08:09:01;1.87;;;1.77;;
6693;SDS011;3384;42.628;23.380;2023-03-01T08:11:28;0.90;;;0.90;;
6693;SDS011;3384;42.628;23.380;2023-03-01T08:13:54;1.73;;;1.63;;
6693;SDS011;3384;42.628;23.380;2023-03-01T08:16:21;1.23;;;1.23;;
6693;SDS011;3384;42.628;23.380;2023-03-01T08:18:48;1.70;;;1.10;;
6693;SDS011;3384;42.628;23.380;2023-03-01T08:21:15;3.50;;;1.50;;
6693;SDS011;3384;42.628;23.380;2023-03-01T08:23:42;2.23;;;1.20;;
6693;SDS011;3384;42.628;23.380;2023-03-01T08:26:11;1.70;;;1.70;;
6693;SDS011;3384;42.628;23.380;2023-03-01T08:28:38;1.43;;;1.43;;
6693;SDS011;3384;42.628;23.380;2023-03-01T08:31:13;1.80;;;1.80;;
6693;SDS011;3384;42.628;23.380;2023-03-01T08:33:39;3.77;;;1.47;;
6693;SDS011;3384;42.628;23.380;2023-03-01T08:36:06;1.50;;;1.50;;
6693;SDS011;3384;42.628;23.380;2023-03-01T08:38:33;1.47;;;1.37;;
6693;SDS011;3384;42.628;23.380;2023-03-01T08:41:00;1.30;;;1.30;;
6693;SDS011;3384;42.628;23.380;2023-03-01T08:43:28;1.90;;;1.80;;
6693;SDS011;3384;42.628;23.380;2023-03-01T08:45:54;1.30;;;1.30;;
6693;SDS011;3384;42.628;23.380;2023-03-01T08:48:21;1.73;;;1.70;;
6693;SDS011;3384;42.628;23.380;2023-03-01T08:50:47;1.53;;;1.53;;
6693;SDS011;3384;42.628;23.380;2023-03-01T08:53:14;1.70;;;1.70;;
6693;SDS011;3384;42.628;23.380;2023-03-01T08:55:40;3.27;;;1.30;;
6693;SDS011;3384;42.628;23.380;2023-03-01T08:58:07;1.37;;;1.37;;
6693;SDS011;3384;42.628;23.380;2023-03-01T09:00:35;6.40;;;1.30;;
6693;SDS011;3384;42.628;23.380;2023-03-01T09:03:01;11.77;;;1.43;;
6693;SDS011;3384;42.628;23.380;2023-03-01T09:05:28;1.60;;;1.50;;
6693;SDS011;3384;42.628;23.380;2023-03-01T09:07:57;1.00;;;1.00;;
6693;SDS011;3384;42.628;23.380;2023-03-01T09:10:23;1.60;;;1.60;;
6693;SDS011;3384;42.628;23.380;2023-03-01T09:12:50;1.80;;;1.70;;
6693;SDS011;3384;42.628;23.380;2023-03-01T09:15:17;2.13;;;1.60;;
6693;SDS011;3384;42.628;23.380;2023-03-01T09:17:45;1.30;;;1.30;;
6693;SDS011;3384;42.628;23.380;2023-03-01T09:20:12;1.63;;;1.60;;
6693;SDS011;3384;42.628;23.380;2023-03-01T09:22:38;1.50;;;1.30;;
6693;SDS011;3384;42.628;23.380;2023-03-01T09:25:05;1.70;;;1.70;;
6693;SDS011;3384;42.628;23.380;2023-03-01T09:27:32;1.83;;;1.80;;
6693;SDS011;3384;42.628;23.380;2023-03-01T09:29:58;1.90;;;1.80;;
6693;SDS011;3384;42.628;23.380;2023-03-01T09:32:25;1.47;;;1.47;;
6693;SDS011;3384;42.628;23.380;2023-03-01T09:34:53;4.00;;;2.03;;
6693;SDS011;3384;42.628;23.380;2023-03-01T09:37:30;2.10;;;2.00;;
6693;SDS011;3384;42.628;23.380;2023-03-01T09:39:56;1.83;;;1.83;;
6693;SDS011;3384;42.628;23.380;2023-03-01T09:42:23;1.80;;;1.70;;
6693;SDS011;3384;42.628;23.380;2023-03-01T09:44:51;1.70;;;1.70;;
6693;SDS011;3384;42.628;23.380;2023-03-01T09:47:20;2.70;;;2.60;;
6693;SDS011;3384;42.628;23.380;2023-03-01T09:49:49;1.70;;;1.70;;
6693;SDS011;3384;42.628;23.380;2023-03-01T09:52:21;2.17;;;1.40;;
6693;SDS011;3384;42.628;23.380;2023-03-01T09:54:49;1.57;;;1.57;;
6693;SDS011;3384;42.628;23.380;2023-03-01T09:57:19;1.97;;;1.97;;
6693;SDS011;3384;42.628;23.380;2023-03-01T09:59:57;2.10;;;1.90;;
6693;SDS011;3384;42.628;23.380;2023-03-01T10:02:27;2.60;;;2.50;;
6693;SDS011;3384;42.628;23.380;2023-03-01T10:04:57;1.80;;;1.70;;
6693;SDS011;3384;42.628;23.380;2023-03-01T10:07:29;1.73;;;1.73;;
6693;SDS011;3384;42.628;23.380;2023-03-01T10:09:59;2.13;;;2.07;;
6693;SDS011;3384;42.628;23.380;2023-03-01T10:12:33;2.10;;;1.90;;
6693;SDS011;3384;42.628;23.380;2023-03-01T10:18:04;1.97;;;1.87;;
6693;SDS011;3384;42.628;23.380;2023-03-01T10:20:33;3.10;;;3.00;;
6693;SDS011;3384;42.628;23.380;2023-03-01T10:23:05;6.10;;;5.60;;
6693;SDS011;3384;42.628;23.380;2023-03-01T10:25:36;2.60;;;2.50;;
6693;SDS011;3384;42.628;23.380;2023-03-01T10:28:05;2.60;;;2.50;;
6693;SDS011;3384;42.628;23.380;2023-03-01T10:30:35;2.27;;;2.17;;
6693;SDS011;3384;42.628;23.380;2023-03-01T10:33:03;2.83;;;2.73;;
6693;SDS011;3384;42.628;23.380;2023-03-01T10:35:33;2.30;;;2.10;;
6693;SDS011;3384;42.628;23.380;2023-03-01T10:38:05;1.90;;;1.90;;
6693;SDS011;3384;42.628;23.380;2023-03-01T10:40:32;1.83;;;1.83;;
6693;SDS011;3384;42.628;23.380;2023-03-01T10:42:59;2.23;;;2.13;;
6693;SDS011;3384;42.628;23.380;2023-03-01T10:45:30;2.53;;;2.43;;
6693;SDS011;3384;42.628;23.380;2023-03-01T10:48:03;1.83;;;1.73;;
6693;SDS011;3384;42.628;23.380;2023-03-01T10:50:30;2.80;;;2.30;;
6693;SDS011;3384;42.628;23.380;2023-03-01T10:52:57;1.80;;;1.73;;
6693;SDS011;3384;42.628;23.380;2023-03-01T10:55:27;1.00;;;1.00;;
6693;SDS011;3384;42.628;23.380;2023-03-01T11:00:45;5.80;;;2.00;;
6693;SDS011;3384;42.628;23.380;2023-03-01T11:03:18;1.60;;;1.50;;
6693;SDS011;3384;42.628;23.380;2023-03-01T11:05:52;1.40;;;1.40;;
6693;SDS011;3384;42.628;23.380;2023-03-01T11:08:39;1.03;;;1.03;;
6693;SDS011;3384;42.628;23.380;2023-03-01T11:11:18;1.03;;;1.03;;
6693;SDS011;3384;42.628;23.380;2023-03-01T11:13:48;1.50;;;1.50;;
6693;SDS011;3384;42.628;23.380;2023-03-01T11:16:16;2.77;;;2.57;;
6693;SDS011;3384;42.628;23.380;2023-03-01T11:18:55;2.30;;;2.20;;
6693;SDS011;3384;42.628;23.380;2023-03-01T11:21:22;2.53;;;2.03;;
6693;SDS011;3384;42.628;23.380;2023-03-01T11:23:49;2.77;;;2.67;;
6693;SDS011;3384;42.628;23.380;2023-03-01T11:26:17;2.17;;;2.07;;
6693;SDS011;3384;42.628;23.380;2023-03-01T11:28:44;2.20;;;2.10;;
6693;SDS011;3384;42.628;23.380;2023-03-01T11:31:15;2.10;;;2.10;;
6693;SDS011;3384;42.628;23.380;2023-03-01T11:33:43;2.33;;;2.23;;
6693;SDS011;3384;42.628;23.380;2023-03-01T11:36:13;2.50;;;2.40;;
6693;SDS011;3384;42.628;23.380;2023-03-01T11:38:42;2.70;;;2.60;;
6693;SDS011;3384;42.628;23.380;2023-03-01T11:41:11;2.17;;;2.17;;
6693;SDS011;3384;42.628;23.380;2023-03-01T11:43:43;2.97;;;2.70;;
6693;SDS011;3384;42.628;23.380;2023-03-01T11:48:59;5.20;;;2.90;;
6693;SDS011;3384;42.628;23.380;2023-03-01T11:51:36;2.00;;;1.97;;
6693;SDS011;3384;42.628;23.380;2023-03-01T11:54:10;2.97;;;2.87;;
6693;SDS011;3384;42.628;23.380;2023-03-01T11:56:40;2.20;;;2.10;;
6693;SDS011;3384;42.628;23.380;2023-03-01T11:59:23;3.53;;;3.40;;
6693;SDS011;3384;42.628;23.380;2023-03-01T12:01:56;2.50;;;2.40;;
6693;SDS011;3384;42.628;23.380;2023-03-01T12:04:36;2.80;;;2.70;;
6693;SDS011;3384;42.628;23.380;2023-03-01T12:07:11;3.93;;;3.73;;
6693;SDS011;3384;42.628;23.380;2023-03-01T12:12:32;2.80;;;2.70;;
6693;SDS011;3384;42.628;23.380;2023-03-01T12:15:21;3.17;;;3.07;;
6693;SDS011;3384;42.628;23.380;2023-03-01T12:18:03;2.37;;;2.27;;
6693;SDS011;3384;42.628;23.380;2023-03-01T12:20:35;2.47;;;2.37;;
6693;SDS011;3384;42.628;23.380;2023-03-01T12:23:17;2.60;;;2.40;;
6693;SDS011;3384;42.628;23.380;2023-03-01T12:25:48;2.80;;;2.70;;
6693;SDS011;3384;42.628;23.380;2023-03-01T12:28:27;2.60;;;2.50;;
6693;SDS011;3384;42.628;23.380;2023-03-01T12:31:00;3.00;;;2.90;;
6693;SDS011;3384;42.628;23.380;2023-03-01T12:33:30;2.33;;;2.23;;
6693;SDS011;3384;42.628;23.380;2023-03-01T12:38:41;1.90;;;1.90;;
6693;SDS011;3384;42.628;23.380;2023-03-01T12:41:13;2.60;;;2.50;;
6693;SDS011;3384;42.628;23.380;2023-03-01T12:43:46;2.30;;;2.20;;
6693;SDS011;3384;42.628;23.380;2023-03-01T12:46:18;2.40;;;2.30;;
6693;SDS011;3384;42.628;23.380;2023-03-01T12:48:49;2.60;;;2.50;;
6693;SDS011;3384;42.628;23.380;2023-03-01T12:51:19;2.83;;;2.73;;
6693;SDS011;3384;42.628;23.380;2023-03-01T12:53:47;2.83;;;2.70;;
6693;SDS011;3384;42.628;23.380;2023-03-01T12:56:15;2.80;;;2.70;;
6693;SDS011;3384;42.628;23.380;2023-03-01T12:58:46;3.00;;;2.80;;
6693;SDS011;3384;42.628;23.380;2023-03-01T13:01:22;3.13;;;3.03;;
6693;SDS011;3384;42.628;23.380;2023-03-01T13:04:02;2.93;;;2.37;;
6693;SDS011;3384;42.628;23.380;2023-03-01T13:06:32;2.90;;;2.80;;
6693;SDS011;3384;42.628;23.380;2023-03-01T13:09:04;4.90;;;2.70;;
6693;SDS011;3384;42.628;23.380;2023-03-01T13:11:33;3.20;;;3.00;;
6693;SDS011;3384;42.628;23.380;2023-03-01T13:16:46;3.20;;;3.00;;
6693;SDS011;3384;42.628;23.380;2023-03-01T13:19:14;3.20;;;3.10;;
6693;SDS011;3384;42.628;23.380;2023-03-01T13:21:41;2.40;;;2.30;;
6693;SDS011;3384;42.628;23.380;2023-03-01T13:24:25;3.90;;;3.17;;
6693;SDS011;3384;42.628;23.380;2023-03-01T13:27:11;2.50;;;2.40;;
6693;SDS011;3384;42.628;23.380;2023-03-01T13:29:43;4.77;;;2.77;;
6693;SDS011;3384;42.628;23.380;2023-03-01T13:32:20;3.27;;;3.03;;
6693;SDS011;3384;42.628;23.380;2023-03-01T13:34:48;2.90;;;2.50;;
6693;SDS011;3384;42.628;23.380;2023-03-01T13:37:19;2.87;;;2.77;;
6693;SDS011;3384;42.628;23.380;2023-03-01T13:39:46;2.00;;;1.90;;
6693;SDS011;3384;42.628;23.380;2023-03-01T13:42:29;2.93;;;2.70;;
6693;SDS011;3384;42.628;23.380;2023-03-01T13:44:57;2.93;;;2.80;;
6693;SDS011;3384;42.628;23.380;2023-03-01T13:47:25;2.70;;;2.60;;
6693;SDS011;3384;42.628;23.380;2023-03-01T13:49:53;2.70;;;2.60;;
6693;SDS011;3384;42.628;23.380;2023-03-01T13:52:34;2.40;;;2.30;;
6693;SDS011;3384;42.628;23.380;2023-03-01T13:55:02;2.87;;;2.67;;
6693;SDS011;3384;42.628;23.380;2023-03-01T13:57:30;2.30;;;2.20;;
6693;SDS011;3384;42.628;23.380;2023-03-01T13:59:58;2.37;;;2.27;;
6693;SDS011;3384;42.628;23.380;2023-03-01T14:02:26;2.43;;;2.23;;
6693;SDS011;3384;42.628;23.380;2023-03-01T14:04:56;2.23;;;2.13;;
6693;SDS011;3384;42.628;23.380;2023-03-01T14:07:23;2.50;;;2.40;;
6693;SDS011;3384;42.628;23.380;2023-03-01T14:09:51;2.33;;;2.23;;
6693;SDS011;3384;42.628;23.380;2023-03-01T14:12:21;2.50;;;2.40;;
6693;SDS011;3384;42.628;23.380;2023-03-01T14:14:52;2.57;;;2.37;;
6693;SDS011;3384;42.628;23.380;2023-03-01T14:17:28;2.50;;;2.40;;
6693;SDS011;3384;42.628;23.380;2023-03-01T14:19:57;2.60;;;2.37;;
6693;SDS011;3384;42.628;23.380;2023-03-01T14:22:25;2.53;;;2.43;;
6693;SDS011;3384;42.628;23.380;2023-03-01T14:24:54;6.80;;;3.20;;
6693;SDS011;3384;42.628;23.380;2023-03-01T14:27:21;4.10;;;2.60;;
6693;SDS011;3384;42.628;23.380;2023-03-01T14:29:54;3.20;;;3.00;;
6693;SDS011;3384;42.628;23.380;2023-03-01T14:32:21;3.10;;;2.90;;
6693;SDS011;3384;42.628;23.380;2023-03-01T14:34:50;3.50;;;3.40;;
6693;SDS011;3384;42.628;23.380;2023-03-01T14:37:18;3.60;;;3.47;;
6693;SDS011;3384;42.628;23.380;2023-03-01T14:39:45;3.53;;;2.50;;
6693;SDS011;3384;42.628;23.380;2023-03-01T14:42:12;2.97;;;2.87;;
6693;SDS011;3384;42.628;23.380;2023-03-01T14:44:40;3.50;;;3.40;;
6693;SDS011;3384;42.628;23.380;2023-03-01T14:47:10;2.87;;;2.67;;
6693;SDS011;3384;42.628;23.380;2023-03-01T14:49:39;5.20;;;2.30;;
6693;SDS011;3384;42.628;23.380;2023-03-01T14:52:15;3.00;;;2.80;;
6693;SDS011;3384;42.628;23.380;2023-03-01T14:54:44;3.03;;;2.70;;
6693;SDS011;3384;42.628;23.380;2023-03-01T14:57:13;4.17;;;3.40;;
6693;SDS011;3384;42.628;23.380;2023-03-01T14:59:40;3.53;;;2.47;;
6693;SDS011;3384;42.628;23.380;2023-03-01T15:02:08;5.53;;;2.53;;
6693;SDS011;3384;42.628;23.380;2023-03-01T15:04:37;2.90;;;2.80;;
6693;SDS011;3384;42.628;23.380;2023-03-01T15:07:04;4.27;;;3.83;;
6693;SDS011;3384;42.628;23.380;2023-03-01T15:09:32;2.90;;;2.80;;
6693;SDS011;3384;42.628;23.380;2023-03-01T15:12:00;2.63;;;2.53;;
6693;SDS011;3384;42.628;23.380;2023-03-01T15:14:39;9.87;;;3.90;;
6693;SDS011;3384;42.628;23.380;2023-03-01T15:17:15;3.23;;;3.13;;
6693;SDS011;3384;42.628;23.380;2023-03-01T15:19:45;3.33;;;3.13;;
6693;SDS011;3384;42.628;23.380;2023-03-01T15:22:13;3.07;;;2.97;;
6693;SDS011;3384;42.628;23.380;2023-03-01T15:24:42;3.70;;;3.60;;
6693;SDS011;3384;42.628;23.380;2023-03-01T15:27:14;3.40;;;3.30;;
6693;SDS011;3384;42.628;23.380;2023-03-01T15:29:42;8.40;;;2.73;;
6693;SDS011;3384;42.628;23.380;2023-03-01T15:32:23;3.33;;;2.10;;
6693;SDS011;3384;42.628;23.380;2023-03-01T15:34:51;3.27;;;3.17;;
6693;SDS011;3384;42.628;23.380;2023-03-01T15:40:00;2.73;;;2.63;;
6693;SDS011;3384;42.628;23.380;2023-03-01T15:42:36;2.23;;;2.13;;
6693;SDS011;3384;42.628;23.380;2023-03-01T15:45:09;10.87;;;6.53;;
6693;SDS011;3384;42.628;23.380;2023-03-01T15:47:36;3.00;;;2.90;;
6693;SDS011;3384;42.628;23.380;2023-03-01T15:50:05;8.93;;;4.63;;
6693;SDS011;3384;42.628;23.380;2023-03-01T15:52:44;3.07;;;2.97;;
6693;SDS011;3384;42.628;23.380;2023-03-01T15:55:16;4.77;;;3.27;;
6693;SDS011;3384;42.628;23.380;2023-03-01T15:57:43;2.90;;;2.73;;
6693;SDS011;3384;42.628;23.380;2023-03-01T16:00:10;6.40;;;5.50;;
6693;SDS011;3384;42.628;23.380;2023-03-01T16:02:38;3.70;;;3.50;;
6693;SDS011;3384;42.628;23.380;2023-03-01T16:05:09;2.90;;;2.80;;
6693;SDS011;3384;42.628;23.380;2023-03-01T16:07:37;4.60;;;2.23;;
6693;SDS011;3384;42.628;23.380;2023-03-01T16:10:05;2.63;;;2.53;;
6693;SDS011;3384;42.628;23.380;2023-03-01T16:12:32;3.97;;;2.93;;
6693;SDS011;3384;42.628;23.380;2023-03-01T16:14:59;2.93;;;2.77;;
6693;SDS011;3384;42.628;23.380;2023-03-01T16:17:25;10.33;;;4.07;;
6693;SDS011;3384;42.628;23.380;2023-03-01T16:19:52;3.40;;;3.20;;
6693;SDS011;3384;42.628;23.380;2023-03-01T16:22:18;16.87;;;5.40;;
6693;SDS011;3384;42.628;23.380;2023-03-01T16:24:49;5.57;;;2.63;;
6693;SDS011;3384;42.628;23.380;2023-03-01T16:27:16;3.00;;;2.80;;
6693;SDS011;3384;42.628;23.380;2023-03-01T16:29:44;6.27;;;3.00;;
6693;SDS011;3384;42.628;23.380;2023-03-01T16:32:11;4.00;;;3.60;;
6693;SDS011;3384;42.628;23.380;2023-03-01T16:34:37;3.50;;;3.20;;
6693;SDS011;3384;42.628;23.380;2023-03-01T16:37:04;2.77;;;2.57;;
6693;SDS011;3384;42.628;23.380;2023-03-01T16:39:30;3.50;;;3.30;;
6693;SDS011;3384;42.628;23.380;2023-03-01T16:41:58;3.27;;;3.03;;
6693;SDS011;3384;42.628;23.380;2023-03-01T16:44:25;5.60;;;3.60;;
6693;SDS011;3384;42.628;23.380;2023-03-01T16:46:53;3.50;;;3.30;;
6693;SDS011;3384;42.628;23.380;2023-03-01T16:49:23;5.93;;;2.70;;
6693;SDS011;3384;42.628;23.380;2023-03-01T16:51:49;3.43;;;3.33;;
6693;SDS011;3384;42.628;23.380;2023-03-01T16:54:16;5.17;;;2.57;;
6693;SDS011;3384;42.628;23.380;2023-03-01T16:56:43;2.87;;;2.67;;
6693;SDS011;3384;42.628;23.380;2023-03-01T16:59:09;2.30;;;2.20;;
6693;SDS011;3384;42.628;23.380;2023-03-01T17:01:36;3.17;;;2.87;;
6693;SDS011;3384;42.628;23.380;2023-03-01T17:04:08;7.70;;;2.27;;
6693;SDS011;3384;42.628;23.380;2023-03-01T17:06:36;2.47;;;2.37;;
6693;SDS011;3384;42.628;23.380;2023-03-01T17:09:02;4.93;;;2.33;;
6693;SDS011;3384;42.628;23.380;2023-03-01T17:11:29;12.23;;;2.77;;
6693;SDS011;3384;42.628;23.380;2023-03-01T17:13:56;3.00;;;2.90;;
6693;SDS011;3384;42.628;23.380;2023-03-01T17:16:22;2.80;;;2.60;;
6693;SDS011;3384;42.628;23.380;2023-03-01T17:18:51;2.17;;;2.07;;
6693;SDS011;3384;42.628;23.380;2023-03-01T17:21:19;2.20;;;2.10;;
6693;SDS011;3384;42.628;23.380;2023-03-01T17:23:46;2.50;;;2.40;;
6693;SDS011;3384;42.628;23.380;2023-03-01T17:26:14;2.93;;;2.80;;
6693;SDS011;3384;42.628;23.380;2023-03-01T17:28:41;3.83;;;2.70;;
6693;SDS011;3384;42.628;23.380;2023-03-01T17:31:08;4.00;;;3.30;;
6693;SDS011;3384;42.628;23.380;2023-03-01T17:33:35;4.57;;;4.37;;
6693;SDS011;3384;42.628;23.380;2023-03-01T17:36:01;3.67;;;3.47;;
6693;SDS011;3384;42.628;23.380;2023-03-01T17:38:29;4.77;;;4.43;;
6693;SDS011;3384;42.628;23.380;2023-03-01T17:40:57;4.70;;;4.47;;
6693;SDS011;3384;42.628;23.380;2023-03-01T17:43:24;4.93;;;4.40;;
6693;SDS011;3384;42.628;23.380;2023-03-01T17:45:50;3.83;;;3.60;;
6693;SDS011;3384;42.628;23.380;2023-03-01T17:48:18;5.70;;;5.30;;
6693;SDS011;3384;42.628;23.380;2023-03-01T17:50:45;4.10;;;3.83;;
6693;SDS011;3384;42.628;23.380;2023-03-01T17:53:12;5.73;;;5.37;;
6693;SDS011;3384;42.628;23.380;2023-03-01T17:55:40;5.10;;;4.63;;
6693;SDS011;3384;42.628;23.380;2023-03-01T17:58:07;5.27;;;5.00;;
6693;SDS011;3384;42.628;23.380;2023-03-01T18:00:34;5.83;;;5.43;;
6693;SDS011;3384;42.628;23.380;2023-03-01T18:03:01;5.00;;;4.77;;
6693;SDS011;3384;42.628;23.380;2023-03-01T18:05:30;6.37;;;5.83;;
6693;SDS011;3384;42.628;23.380;2023-03-01T18:07:57;5.37;;;5.00;;
6693;SDS011;3384;42.628;23.380;2023-03-01T18:10:23;6.33;;;5.30;;
6693;SDS011;3384;42.628;23.380;2023-03-01T18:12:51;7.10;;;6.03;;
6693;SDS011;3384;42.628;23.380;2023-03-01T18:15:18;6.37;;;5.93;;
6693;SDS011;3384;42.628;23.380;2023-03-01T18:17:44;6.27;;;5.97;;
6693;SDS011;3384;42.628;23.380;2023-03-01T18:20:11;7.17;;;6.57;;
6693;SDS011;3384;42.628;23.380;2023-03-01T18:22:39;7.13;;;5.97;;
6693;SDS011;3384;42.628;23.380;2023-03-01T18:25:06;7.73;;;6.17;;
6693;SDS011;3384;42.628;23.380;2023-03-01T18:27:33;6.90;;;6.40;;
6693;SDS011;3384;42.628;23.380;2023-03-01T18:30:02;5.07;;;4.83;;
6693;SDS011;3384;42.628;23.380;2023-03-01T18:32:29;7.57;;;6.03;;
6693;SDS011;3384;42.628;23.380;2023-03-01T18:34:55;6.33;;;5.47;;
6693;SDS011;3384;42.628;23.380;2023-03-01T18:37:22;5.90;;;4.93;;
6693;SDS011;3384;42.628;23.380;2023-03-01T18:39:49;6.10;;;5.80;;
6693;SDS011;3384;42.628;23.380;2023-03-01T18:42:16;5.70;;;5.30;;
6693;SDS011;3384;42.628;23.380;2023-03-01T18:44:44;5.33;;;4.90;;
6693;SDS011;3384;42.628;23.380;2023-03-01T18:47:12;6.00;;;5.50;;
6693;SDS011;3384;42.628;23.380;2023-03-01T18:49:38;5.33;;;5.03;;
6693;SDS011;3384;42.628;23.380;2023-03-01T18:52:05;5.70;;;5.23;;
6693;SDS011;3384;42.628;23.380;2023-03-01T18:54:32;5.07;;;4.73;;
6693;SDS011;3384;42.628;23.380;2023-03-01T18:57:00;5.70;;;5.20;;
6693;SDS011;3384;42.628;23.380;2023-03-01T18:59:26;5.60;;;5.30;;
6693;SDS011;3384;42.628;23.380;2023-03-01T19:01:54;5.33;;;4.87;;
6693;SDS011;3384;42.628;23.380;2023-03-01T19:04:21;6.90;;;6.20;;
6693;SDS011;3384;42.628;23.380;2023-03-01T19:06:48;5.43;;;4.93;;
6693;SDS011;3384;42.628;23.380;2023-03-01T19:09:15;4.77;;;4.57;;
6693;SDS011;3384;42.628;23.380;2023-03-01T19:11:41;6.97;;;5.77;;
6693;SDS011;3384;42.628;23.380;2023-03-01T19:14:08;6.80;;;5.60;;
6693;SDS011;3384;42.628;23.380;2023-03-01T19:16:35;7.23;;;6.57;;
6693;SDS011;3384;42.628;23.380;2023-03-01T19:19:02;5.67;;;5.27;;
6693;SDS011;3384;42.628;23.380;2023-03-01T19:21:31;5.40;;;4.87;;
6693;SDS011;3384;42.628;23.380;2023-03-01T19:23:58;5.23;;;4.93;;